Time;durP1;ratioP1;P1;durP2;ratioP2;P2;SDS_P1;SDS_P2;PMS_P1;PMS_P2;Temp;Humidity;BMP_temperature;BMP_pressure;BME280_temperature;BME280_humidity;BME280_pressure;Samples;Min_cycle;Max_cycle;Signal;HPM_P1;HPM_P2
2023/02/28 00:01:21;;;;;;;11.50;11.20;;;19.90;43.30;;;;;;4952960;28;20508;-60
2023/02/28 00:03:48;;;;;;;11.10;10.80;;;19.80;43.30;;;;;;4953188;28;20480;-61
2023/02/28 00:06:17;;;;;;;11.53;11.13;;;19.80;43.40;;;;;;4952602;28;20485;-58
2023/02/28 00:08:44;;;;;;;11.70;11.20;;;19.80;43.40;;;;;;4953146;28;20484;-59
2023/02/28 00:11:13;;;;;;;11.10;10.80;;;19.80;43.40;;;;;;4952928;28;20523;-60
2023/02/28 00:13:42;;;;;;;13.07;12.67;;;19.80;43.40;;;;;;4953136;28;20491;-59
2023/02/28 00:16:10;;;;;;;11.30;11.00;;;19.80;43.30;;;;;;4952614;28;20457;-59
2023/02/28 00:18:38;;;;;;;11.70;11.30;;;19.80;43.30;;;;;;4955017;28;20481;-60
2023/02/28 00:21:05;;;;;;;11.67;11.27;;;19.70;43.20;;;;;;4956405;28;20499;-61
2023/02/28 00:23:33;;;;;;;10.77;10.47;;;19.80;43.30;;;;;;4956546;28;20996;-60
2023/02/28 00:26:00;;;;;;;10.70;10.40;;;19.70;43.20;;;;;;4956057;28;20488;-61
2023/02/28 00:28:27;;;;;;;10.23;10.00;;;19.80;43.20;;;;;;4956470;28;20499;-58
2023/02/28 00:30:54;;;;;;;10.70;10.40;;;19.80;43.30;;;;;;4956361;28;20504;-60
2023/02/28 00:33:21;;;;;;;10.47;10.17;;;19.80;43.20;;;;;;4956252;28;20468;-60
2023/02/28 00:35:48;;;;;;;10.30;9.97;;;19.70;43.10;;;;;;4955891;28;20481;-59
2023/02/28 00:38:15;;;;;;;11.20;10.60;;;19.70;43.20;;;;;;4956311;28;20456;-61
2023/02/28 00:40:44;;;;;;;10.93;10.63;;;19.70;43.20;;;;;;4956133;28;20504;-60
2023/02/28 00:43:11;;;;;;;10.57;10.27;;;19.70;43.20;;;;;;4955945;28;20916;-59
2023/02/28 00:45:37;;;;;;;11.33;10.93;;;19.70;43.20;;;;;;4956051;28;20499;-61
2023/02/28 00:48:05;;;;;;;10.70;10.40;;;19.70;43.20;;;;;;4956394;28;20868;-61
2023/02/28 00:50:32;;;;;;;11.00;10.70;;;19.70;43.20;;;;;;4956038;28;20487;-61
2023/02/28 00:52:59;;;;;;;11.33;10.93;;;19.70;43.30;;;;;;4955538;28;20539;-61
2023/02/28 00:55:26;;;;;;;10.63;10.33;;;19.60;43.20;;;;;;4955940;28;20535;-60
2023/02/28 00:57:54;;;;;;;10.90;10.60;;;19.70;43.30;;;;;;4955680;28;20563;-61
2023/02/28 01:00:21;;;;;;;10.87;10.57;;;19.70;43.30;;;;;;4955726;28;20568;-60
2023/02/28 01:02:48;;;;;;;10.20;9.90;;;19.60;43.20;;;;;;4955558;28;20569;-58
2023/02/28 01:05:15;;;;;;;10.80;10.50;;;19.60;43.30;;;;;;4955715;28;20536;-59
2023/02/28 01:07:42;;;;;;;11.60;11.30;;;19.60;43.30;;;;;;4955791;28;20537;-59
2023/02/28 01:10:10;;;;;;;11.93;11.43;;;19.60;43.30;;;;;;4955620;28;20680;-60
2023/02/28 01:12:37;;;;;;;11.73;11.13;;;19.60;43.80;;;;;;4955412;28;20536;-61
2023/02/28 01:15:07;;;;;;;10.60;10.30;;;19.60;43.40;;;;;;4955439;28;20539;-58
2023/02/28 01:17:33;;;;;;;10.83;10.53;;;19.60;43.40;;;;;;4955627;28;20536;-61
2023/02/28 01:20:00;;;;;;;11.00;10.60;;;19.50;43.40;;;;;;4955569;28;20551;-58
2023/02/28 01:22:27;;;;;;;11.00;10.70;;;19.50;43.40;;;;;;4955252;28;20484;-60
2023/02/28 01:24:55;;;;;;;10.63;10.23;;;19.50;43.40;;;;;;4955312;28;21043;-59
2023/02/28 01:27:22;;;;;;;10.00;9.70;;;19.50;43.40;;;;;;4955326;28;21039;-59
2023/02/28 01:29:48;;;;;;;10.63;10.33;;;19.50;43.50;;;;;;4954104;28;21023;-60
2023/02/28 01:32:17;;;;;;;10.90;10.60;;;19.50;43.50;;;;;;4955130;28;20532;-60
2023/02/28 01:34:43;;;;;;;10.50;10.20;;;19.50;43.50;;;;;;4955172;28;20536;-60
2023/02/28 01:37:10;;;;;;;11.00;10.70;;;19.50;43.50;;;;;;4955251;28;20532;-59
2023/02/28 01:39:37;;;;;;;10.70;10.40;;;19.40;43.40;;;;;;4955052;28;20575;-57
2023/02/28 01:42:04;;;;;;;10.50;10.20;;;19.40;43.40;;;;;;4954723;28;20535;-59
2023/02/28 01:44:58;;;;;;;11.13;10.83;;;19.50;43.50;;;;;;4954963;28;20544;-59
2023/02/28 01:47:29;;;;;;;9.80;9.57;;;19.40;43.40;;;;;;4954993;28;20448;-58
2023/02/28 01:49:56;;;;;;;10.93;10.60;;;19.40;43.40;;;;;;4954608;28;20552;-59
2023/02/28 01:52:24;;;;;;;11.03;10.63;;;19.40;43.40;;;;;;4954908;28;20535;-59
2023/02/28 01:54:54;;;;;;;10.30;10.00;;;19.40;43.40;;;;;;4954860;28;20869;-60
2023/02/28 01:57:27;;;;;;;10.93;10.53;;;19.40;43.50;;;;;;4954735;28;20532;-60
2023/02/28 01:59:59;;;;;;;10.63;10.40;;;19.40;43.40;;;;;;4954521;28;20504;-59
2023/02/28 02:02:29;;;;;;;11.03;10.63;;;19.40;43.40;;;;;;4954560;28;20488;-60
2023/02/28 02:05:01;;;;;;;11.00;10.70;;;19.40;43.40;;;;;;4954506;28;20531;-59
2023/02/28 02:07:32;;;;;;;11.30;11.00;;;19.40;43.40;;;;;;4954544;28;20488;-59
2023/02/28 02:10:03;;;;;;;10.37;10.00;;;19.40;43.40;;;;;;4954196;28;20564;-58
2023/02/28 02:12:49;;;;;;;10.80;10.50;;;19.40;43.40;;;;;;4954555;28;20512;-58
2023/02/28 02:15:20;;;;;;;11.20;10.90;;;19.40;43.40;;;;;;4954386;28;20524;-60
2023/02/28 02:17:52;;;;;;;10.80;10.50;;;19.40;43.40;;;;;;4954457;28;20536;-60
2023/02/28 02:20:48;;;;;;;11.20;10.90;;;19.40;43.50;;;;;;4953953;28;20556;-59
2023/02/28 02:23:37;;;;;;;9.93;9.73;;;19.40;43.50;;;;;;4954273;28;20582;-60
2023/02/28 02:26:30;;;;;;;10.80;10.50;;;19.40;43.50;;;;;;4945521;28;20543;-56
2023/02/28 02:29:11;;;;;;;10.90;10.60;;;19.30;43.40;;;;;;4953929;28;20540;-60
2023/02/28 02:32:00;;;;;;;10.70;10.40;;;19.30;43.40;;;;;;4954207;28;20857;-59
2023/02/28 02:34:49;;;;;;;11.30;10.90;;;19.30;43.40;;;;;;4954013;28;20945;-60
2023/02/28 02:37:28;;;;;;;11.17;10.77;;;19.30;43.40;;;;;;4953931;28;20532;-59
2023/02/28 02:40:01;;;;;;;11.13;10.83;;;19.30;43.40;;;;;;4953815;28;20555;-59
2023/02/28 02:42:34;;;;;;;11.27;10.77;;;19.30;43.40;;;;;;4953997;28;20991;-58
2023/02/28 02:45:05;;;;;;;12.33;11.93;;;19.30;43.50;;;;;;4953945;28;20536;-59
2023/02/28 02:47:34;;;;;;;10.87;10.57;;;19.30;43.50;;;;;;4953685;28;20535;-59
2023/02/28 02:50:06;;;;;;;10.70;10.40;;;19.30;43.50;;;;;;4953875;28;20884;-60
2023/02/28 02:52:39;;;;;;;11.20;10.90;;;19.20;43.50;;;;;;4953949;28;20536;-58
2023/02/28 02:55:10;;;;;;;10.70;10.40;;;19.20;43.50;;;;;;4953649;28;20535;-57
2023/02/28 02:57:42;;;;;;;10.60;10.30;;;19.20;43.50;;;;;;4953671;28;20461;-59
2023/02/28 03:00:11;;;;;;;11.27;10.87;;;19.20;43.50;;;;;;4953682;28;20560;-60
2023/02/28 03:02:40;;;;;;;11.10;10.80;;;19.20;43.60;;;;;;4953640;28;21023;-57
2023/02/28 03:05:18;;;;;;;10.47;10.17;;;19.20;43.50;;;;;;4953410;28;20539;-59
2023/02/28 03:07:44;;;;;;;11.37;11.07;;;19.20;43.60;;;;;;4953638;28;20536;-59
2023/02/28 03:10:31;;;;;;;10.90;10.60;;;19.20;43.60;;;;;;5014348;23;20924;-51
2023/02/28 03:13:23;;;;;;;11.47;11.17;;;19.20;43.60;;;;;;5003623;28;20438;-52
2023/02/28 03:16:02;;;;;;;10.73;10.43;;;19.20;43.60;;;;;;4997865;28;21045;-52
2023/02/28 03:18:38;;;;;;;10.90;10.53;;;19.20;43.60;;;;;;4992496;28;20542;-51
2023/02/28 03:21:17;;;;;;;11.30;10.90;;;19.20;43.60;;;;;;4992206;28;20484;-51
2023/02/28 03:23:49;;;;;;;12.03;11.63;;;19.20;43.70;;;;;;4992278;28;20826;-52
2023/02/28 03:26:22;;;;;;;11.10;10.80;;;19.20;43.60;;;;;;4982568;28;20559;-50
2023/02/28 03:28:56;;;;;;;10.70;10.40;;;19.20;43.70;;;;;;4972943;28;20534;-53
2023/02/28 03:31:27;;;;;;;10.80;10.50;;;19.20;43.70;;;;;;4972847;28;20467;-51
2023/02/28 03:34:00;;;;;;;10.00;9.70;;;19.20;43.70;;;;;;4972845;28;20530;-52
2023/02/28 03:36:32;;;;;;;10.70;10.30;;;19.10;43.60;;;;;;4977933;28;20537;-51
2023/02/28 03:39:03;;;;;;;10.80;10.50;;;19.20;43.70;;;;;;4992159;28;20973;-53
2023/02/28 03:41:36;;;;;;;10.50;10.20;;;19.10;43.60;;;;;;4991962;28;20484;-50
2023/02/28 03:44:08;;;;;;;10.67;10.27;;;19.10;43.60;;;;;;4992077;28;20581;-53
2023/02/28 03:46:40;;;;;;;10.60;10.20;;;19.10;43.60;;;;;;4980527;28;20876;-52
2023/02/28 03:49:13;;;;;;;10.73;10.43;;;19.10;43.50;;;;;;4972629;28;21047;-53
2023/02/28 03:51:43;;;;;;;10.03;9.83;;;19.10;43.50;;;;;;4972480;28;20551;-51
2023/02/28 03:54:13;;;;;;;10.70;10.30;;;19.10;43.60;;;;;;4975873;28;20546;-50
2023/02/28 03:56:44;;;;;;;11.53;11.10;;;19.10;43.50;;;;;;4987585;28;20533;-50
2023/02/28 03:59:16;;;;;;;10.30;10.00;;;19.10;43.50;;;;;;4995952;28;20549;-50
2023/02/28 04:01:44;;;;;;;11.33;10.60;;;19.10;43.50;;;;;;4995632;28;20546;-50
2023/02/28 04:04:13;;;;;;;11.20;10.90;;;19.10;43.50;;;;;;4990494;28;20566;-53
2023/02/28 04:06:42;;;;;;;10.40;10.13;;;19.10;43.50;;;;;;4975970;28;20543;-50
2023/02/28 04:09:11;;;;;;;10.60;10.30;;;19.10;43.50;;;;;;4976108;28;20551;-55
2023/02/28 04:11:41;;;;;;;9.77;9.33;;;19.00;43.40;;;;;;4975926;28;20562;-51
2023/02/28 04:14:09;;;;;;;10.23;9.93;;;19.00;43.50;;;;;;4979985;28;20526;-52
2023/02/28 04:16:38;;;;;;;11.73;11.20;;;19.00;43.40;;;;;;4995308;28;20542;-50
2023/02/28 04:19:07;;;;;;;10.70;10.40;;;19.00;43.40;;;;;;4995475;28;20481;-51
2023/02/28 04:21:36;;;;;;;10.87;10.57;;;19.00;43.40;;;;;;4995189;28;21052;-52
2023/02/28 04:24:05;;;;;;;10.93;10.60;;;19.00;43.40;;;;;;4978108;28;20570;-51
2023/02/28 04:26:33;;;;;;;10.40;10.10;;;19.00;43.50;;;;;;4975548;28;20522;-50
2023/02/28 04:29:03;;;;;;;10.10;9.90;;;19.00;43.50;;;;;;4975770;28;20534;-51
2023/02/28 04:31:29;;;;;;;10.53;10.20;;;19.00;43.50;;;;;;4975633;28;20563;-50
2023/02/28 04:33:57;;;;;;;10.77;10.43;;;19.00;43.50;;;;;;4975592;28;20535;-52
2023/02/28 04:36:24;;;;;;;10.87;10.57;;;19.00;43.50;;;;;;4975490;28;20550;-52
2023/02/28 04:38:50;;;;;;;10.80;10.50;;;19.00;43.50;;;;;;4975483;28;20539;-51
2023/02/28 04:41:19;;;;;;;11.30;10.87;;;19.00;43.50;;;;;;4975545;28;20550;-54
2023/02/28 04:43:46;;;;;;;10.33;10.03;;;19.00;43.60;;;;;;4975689;28;20562;-50
2023/02/28 04:46:13;;;;;;;10.20;9.90;;;19.00;43.50;;;;;;4975253;28;20539;-56
2023/02/28 04:48:41;;;;;;;11.13;10.63;;;19.00;43.50;;;;;;4975435;28;20534;-50
2023/02/28 04:51:10;;;;;;;10.57;10.27;;;19.00;43.50;;;;;;4975208;28;20570;-50
2023/02/28 04:53:38;;;;;;;10.10;9.87;;;19.00;43.50;;;;;;4975507;28;20526;-53
2023/02/28 04:56:06;;;;;;;9.53;9.27;;;19.00;43.50;;;;;;4975209;28;20814;-52
2023/02/28 04:58:35;;;;;;;10.10;9.90;;;19.00;43.60;;;;;;4975296;28;20455;-50
2023/02/28 05:01:03;;;;;;;11.40;11.03;;;19.00;43.60;;;;;;4975198;28;20565;-51
2023/02/28 05:03:30;;;;;;;10.93;10.43;;;19.00;43.60;;;;;;4975273;28;20570;-50
2023/02/28 05:05:57;;;;;;;11.57;11.17;;;19.00;43.50;;;;;;4974907;28;20534;-52
2023/02/28 05:08:25;;;;;;;11.17;10.77;;;19.00;43.60;;;;;;4975052;28;20546;-50
2023/02/28 05:10:52;;;;;;;11.40;11.10;;;19.00;43.60;;;;;;4978000;28;20475;-51
2023/02/28 05:13:18;;;;;;;11.60;10.90;;;19.00;43.60;;;;;;4994304;28;20501;-50
2023/02/28 05:15:47;;;;;;;10.00;9.80;;;19.00;43.70;;;;;;4994232;28;20650;-52
2023/02/28 05:18:14;;;;;;;11.17;10.80;;;18.90;43.60;;;;;;4994307;28;20530;-52
2023/02/28 05:20:40;;;;;;;11.27;10.87;;;19.00;43.70;;;;;;4992247;28;20549;-52
2023/02/28 05:23:09;;;;;;;10.70;10.37;;;18.90;43.70;;;;;;4974690;28;20531;-53
2023/02/28 05:25:36;;;;;;;10.50;10.30;;;18.90;43.70;;;;;;4974508;28;20538;-51
2023/02/28 05:28:03;;;;;;;10.73;10.33;;;18.90;43.70;;;;;;4974654;28;20542;-52
2023/02/28 05:30:31;;;;;;;11.67;11.07;;;18.90;44.10;;;;;;4974585;28;20914;-52
2023/02/28 05:32:59;;;;;;;13.53;12.23;;;19.00;44.90;;;;;;4955272;28;20449;-54
2023/02/28 05:35:27;;;;;;;12.40;11.80;;;18.90;46.10;;;;;;4955232;28;20535;-51
2023/02/28 05:37:54;;;;;;;13.13;12.00;;;18.90;47.10;;;;;;4955184;28;20536;-54
2023/02/28 05:40:21;;;;;;;12.80;11.07;;;19.00;47.30;;;;;;4977470;28;20541;-54
2023/02/28 05:42:48;;;;;;;13.67;12.33;;;18.90;48.00;;;;;;4989853;28;20406;-53
2023/02/28 05:45:15;;;;;;;13.17;12.07;;;19.00;48.10;;;;;;4993686;28;21084;-51
2023/02/28 05:47:41;;;;;;;11.37;10.77;;;19.00;48.20;;;;;;4993636;28;20526;-52
2023/02/28 05:50:11;;;;;;;11.70;11.07;;;19.00;48.10;;;;;;4993741;28;21065;-53
2023/02/28 05:52:38;;;;;;;12.60;11.93;;;19.00;47.90;;;;;;4993535;28;20541;-52
2023/02/28 05:55:06;;;;;;;13.77;12.87;;;19.00;47.60;;;;;;4993567;28;20529;-51
2023/02/28 05:57:33;;;;;;;13.57;12.27;;;19.00;47.50;;;;;;4993647;28;20458;-51
2023/02/28 05:59:59;;;;;;;12.60;11.90;;;19.00;47.30;;;;;;4993250;28;20570;-52
2023/02/28 06:02:26;;;;;;;13.27;12.30;;;19.00;47.10;;;;;;4993497;28;20542;-56
2023/02/28 06:04:53;;;;;;;12.20;11.40;;;19.00;47.00;;;;;;4993496;28;20891;-52
2023/02/28 06:07:22;;;;;;;12.13;11.57;;;19.00;47.00;;;;;;4993427;28;20533;-53
2023/02/28 06:09:49;;;;;;;12.87;12.07;;;19.00;46.90;;;;;;4993125;28;20486;-56
2023/02/28 06:12:16;;;;;;;12.20;11.40;;;19.00;46.90;;;;;;4993466;28;20554;-55
2023/02/28 06:14:42;;;;;;;13.07;12.17;;;19.00;46.70;;;;;;4992763;28;20875;-56
2023/02/28 06:17:10;;;;;;;11.20;10.70;;;19.00;46.60;;;;;;4992779;28;21010;-52
2023/02/28 06:19:38;;;;;;;13.03;12.07;;;19.00;46.50;;;;;;4993207;28;20538;-55
2023/02/28 06:22:06;;;;;;;12.27;11.67;;;19.00;46.40;;;;;;4993835;28;20454;-55
2023/02/28 06:24:34;;;;;;;11.80;11.20;;;19.00;46.40;;;;;;4995006;28;20577;-52
2023/02/28 06:27:04;;;;;;;12.03;11.60;;;18.90;46.20;;;;;;4994694;28;20547;-57
2023/02/28 06:29:32;;;;;;;12.30;11.70;;;19.00;46.30;;;;;;4994451;28;20846;-54
2023/02/28 06:31:59;;;;;;;11.80;11.30;;;19.00;46.20;;;;;;4994499;28;20478;-57
2023/02/28 06:34:26;;;;;;;12.30;11.63;;;18.90;46.00;;;;;;4993984;28;20533;-52
2023/02/28 06:36:53;;;;;;;12.27;11.47;;;18.90;46.00;;;;;;4994171;28;20505;-55
2023/02/28 06:39:21;;;;;;;12.63;11.93;;;18.90;45.90;;;;;;4993889;28;20447;-51
2023/02/28 06:41:52;;;;;;;11.87;11.27;;;18.90;45.80;;;;;;4993587;28;20450;-52
2023/02/28 06:44:19;;;;;;;12.27;11.53;;;18.90;45.80;;;;;;4993723;28;20985;-51
2023/02/28 06:46:47;;;;;;;13.17;12.23;;;18.90;45.70;;;;;;4993158;28;20538;-54
2023/02/28 06:49:14;;;;;;;11.77;11.07;;;18.90;45.70;;;;;;4993647;28;20531;-54
2023/02/28 06:51:44;;;;;;;11.00;10.60;;;18.90;45.60;;;;;;4993460;28;21066;-50
2023/02/28 06:54:11;;;;;;;11.27;10.77;;;18.90;45.60;;;;;;4993968;28;20453;-55
2023/02/28 06:56:39;;;;;;;11.03;10.70;;;18.90;45.60;;;;;;4993835;28;20451;-56
2023/02/28 06:59:07;;;;;;;10.83;10.43;;;18.90;45.50;;;;;;4994009;28;20546;-51
2023/02/28 07:01:34;;;;;;;12.00;11.23;;;18.90;45.50;;;;;;4993652;28;20558;-56
2023/02/28 07:04:01;;;;;;;11.20;10.80;;;18.90;45.50;;;;;;4993950;28;21080;-55
2023/02/28 07:06:28;;;;;;;11.00;10.60;;;18.90;45.40;;;;;;4993463;28;20534;-53
2023/02/28 07:08:55;;;;;;;10.33;10.07;;;18.90;45.50;;;;;;4993715;28;20543;-54
2023/02/28 07:11:25;;;;;;;11.93;11.10;;;18.90;45.30;;;;;;4993584;28;20557;-54
2023/02/28 07:13:52;;;;;;;11.07;10.67;;;18.90;45.30;;;;;;4993427;28;20442;-55
2023/02/28 07:16:21;;;;;;;11.10;10.60;;;18.90;45.30;;;;;;4993358;28;20474;-56
2023/02/28 07:18:48;;;;;;;11.10;10.70;;;18.90;45.30;;;;;;4993564;28;20526;-50
2023/02/28 07:21:15;;;;;;;10.83;10.53;;;18.90;45.30;;;;;;4993710;28;20559;-53
2023/02/28 07:23:42;;;;;;;10.67;10.17;;;18.80;45.30;;;;;;4994368;28;20481;-51
2023/02/28 07:26:14;;;;;;;11.07;10.67;;;18.80;45.20;;;;;;4994275;28;20577;-51
2023/02/28 07:28:42;;;;;;;11.03;10.57;;;18.80;45.20;;;;;;4998205;28;20450;-50
2023/02/28 07:31:10;;;;;;;10.87;10.33;;;18.80;45.20;;;;;;4997491;28;20470;-54
2023/02/28 07:33:38;;;;;;;11.43;11.07;;;18.90;45.30;;;;;;4997069;28;20466;-54
2023/02/28 07:36:08;;;;;;;11.67;11.10;;;18.90;45.30;;;;;;4996876;28;20522;-55
2023/02/28 07:38:35;;;;;;;11.53;10.83;;;18.90;45.30;;;;;;4997305;28;20538;-56
2023/02/28 07:41:04;;;;;;;11.30;10.73;;;18.90;45.30;;;;;;4997561;28;20473;-51
2023/02/28 07:43:32;;;;;;;11.83;11.13;;;18.90;45.30;;;;;;4997400;28;20455;-56
2023/02/28 07:46:03;;;;;;;11.13;10.83;;;18.90;45.20;;;;;;4996879;28;20573;-55
2023/02/28 07:48:30;;;;;;;11.43;10.83;;;18.90;45.20;;;;;;4996800;28;20871;-51
2023/02/28 07:50:59;;;;;;;11.27;10.87;;;18.90;45.20;;;;;;4996726;28;20585;-57
2023/02/28 07:53:26;;;;;;;10.60;10.20;;;18.90;45.20;;;;;;4996397;28;20537;-54
2023/02/28 07:55:56;;;;;;;11.23;10.77;;;18.90;45.10;;;;;;4996422;28;20538;-58
2023/02/28 07:58:23;;;;;;;10.63;10.23;;;18.90;45.10;;;;;;4997081;28;20529;-53
2023/02/28 08:00:50;;;;;;;10.93;10.53;;;18.90;45.10;;;;;;4996672;28;20562;-55
2023/02/28 08:03:18;;;;;;;10.50;10.20;;;18.90;45.10;;;;;;4996920;28;20510;-52
2023/02/28 08:05:46;;;;;;;10.70;10.40;;;18.90;45.00;;;;;;4996315;28;20922;-53
2023/02/28 08:08:14;;;;;;;11.00;10.70;;;18.90;45.00;;;;;;4997001;28;20510;-52
2023/02/28 08:10:43;;;;;;;11.10;10.60;;;18.90;45.00;;;;;;4996348;28;20474;-52
2023/02/28 08:13:10;;;;;;;11.37;11.00;;;18.90;45.00;;;;;;4996334;28;20867;-59
2023/02/28 08:15:37;;;;;;;11.57;11.17;;;18.90;45.00;;;;;;4995989;28;20903;-54
2023/02/28 08:18:04;;;;;;;10.80;10.50;;;18.90;45.00;;;;;;4996244;28;21137;-54
2023/02/28 08:20:31;;;;;;;11.57;11.10;;;18.90;45.00;;;;;;4996344;28;20545;-57
2023/02/28 08:22:58;;;;;;;10.80;10.43;;;18.90;45.00;;;;;;4996654;28;20473;-55
2023/02/28 08:25:26;;;;;;;10.40;10.20;;;18.90;44.90;;;;;;4996390;28;20573;-51
2023/02/28 08:27:54;;;;;;;11.43;11.00;;;18.90;45.00;;;;;;4996913;28;20546;-53
2023/02/28 08:30:20;;;;;;;11.47;11.07;;;18.90;44.90;;;;;;4996646;28;20477;-54
2023/02/28 08:32:47;;;;;;;11.20;10.70;;;18.90;44.90;;;;;;4996487;28;20545;-52
2023/02/28 08:35:14;;;;;;;11.40;10.83;;;18.90;44.90;;;;;;4996089;28;20546;-51
2023/02/28 08:37:41;;;;;;;10.80;10.50;;;18.80;44.80;;;;;;4995989;28;20538;-56
2023/02/28 08:40:09;;;;;;;11.10;10.80;;;18.80;44.80;;;;;;4995746;28;20553;-57
2023/02/28 08:42:37;;;;;;;11.07;10.60;;;18.80;44.70;;;;;;4995950;28;20490;-57
2023/02/28 08:45:05;;;;;;;11.03;10.63;;;18.80;44.80;;;;;;4995690;28;21065;-51
2023/02/28 08:47:32;;;;;;;11.23;10.83;;;18.80;44.70;;;;;;4996054;28;20530;-56
2023/02/28 08:49:59;;;;;;;10.93;10.53;;;18.80;44.80;;;;;;4995821;28;21052;-55
2023/02/28 08:52:26;;;;;;;10.73;10.43;;;18.80;44.70;;;;;;4996097;28;20533;-51
2023/02/28 08:54:53;;;;;;;11.30;11.00;;;18.80;44.70;;;;;;4995958;28;20542;-55
2023/02/28 08:57:19;;;;;;;10.87;10.27;;;18.80;44.70;;;;;;4996368;28;20530;-52
2023/02/28 08:59:48;;;;;;;10.90;10.60;;;18.80;44.60;;;;;;4996618;28;20534;-52
2023/02/28 09:02:15;;;;;;;10.90;10.60;;;18.80;44.70;;;;;;4995933;28;20866;-51
2023/02/28 09:04:45;;;;;;;10.17;9.87;;;18.80;44.70;;;;;;4995640;28;20925;-52
2023/02/28 09:07:12;;;;;;;10.80;10.50;;;18.80;44.70;;;;;;4995887;28;20533;-51
2023/02/28 09:09:55;;;;;;;10.93;10.53;;;18.80;44.70;;;;;;4995359;28;20895;-60
2023/02/28 09:12:22;;;;;;;10.40;10.10;;;18.80;44.70;;;;;;4904559;29;20558;-60
2023/02/28 09:14:51;;;;;;;11.17;10.87;;;18.80;44.70;;;;;;4916142;29;20891;-61
2023/02/28 09:17:18;;;;;;;11.73;11.30;;;18.80;44.70;;;;;;4917399;29;20541;-61
2023/02/28 09:19:45;;;;;;;11.10;10.70;;;18.80;44.60;;;;;;4917445;29;20545;-61
2023/02/28 09:22:12;;;;;;;10.30;10.10;;;18.80;44.60;;;;;;4917472;29;20454;-60
2023/02/28 09:24:39;;;;;;;11.27;10.87;;;18.80;44.60;;;;;;4917060;29;20573;-61
2023/02/28 09:27:06;;;;;;;10.40;10.20;;;18.80;44.60;;;;;;4917165;29;20553;-62
2023/02/28 09:29:34;;;;;;;10.87;10.57;;;18.80;44.60;;;;;;4917289;29;20538;-61
2023/02/28 09:32:05;;;;;;;10.90;10.50;;;18.80;44.50;;;;;;4917094;29;20562;-62
2023/02/28 09:34:32;;;;;;;11.10;10.80;;;18.80;44.60;;;;;;4917058;29;20451;-60
2023/02/28 09:36:59;;;;;;;10.30;10.10;;;18.80;44.50;;;;;;4917038;29;20536;-62
2023/02/28 09:39:28;;;;;;;10.80;10.50;;;18.80;44.50;;;;;;4917009;29;20545;-61
2023/02/28 09:41:56;;;;;;;10.70;10.40;;;18.80;44.50;;;;;;4917112;29;20505;-60
2023/02/28 09:44:29;;;;;;;10.67;10.40;;;18.80;44.50;;;;;;4916949;29;20541;-61
2023/02/28 09:47:00;;;;;;;11.13;10.83;;;18.80;44.50;;;;;;4916970;29;20825;-62
2023/02/28 09:49:36;;;;;;;10.40;10.10;;;18.80;44.50;;;;;;4916649;29;20934;-62
2023/02/28 09:52:08;;;;;;;11.07;10.80;;;18.80;44.50;;;;;;4916295;29;20470;-61
2023/02/28 09:54:37;;;;;;;10.23;10.03;;;18.80;44.40;;;;;;4916752;29;20450;-61
2023/02/28 09:57:09;;;;;;;10.57;10.27;;;18.80;44.40;;;;;;4916717;29;20462;-60
2023/02/28 09:59:55;;;;;;;10.70;10.40;;;18.80;44.40;;;;;;4916799;29;20534;-61
2023/02/28 10:02:51;;;;;;;11.00;10.50;;;18.80;44.40;;;;;;4916610;29;20525;-61
2023/02/28 10:05:21;;;;;;;10.80;10.50;;;18.80;44.40;;;;;;4889038;29;20565;-62
2023/02/28 10:08:01;;;;;;;10.53;10.27;;;18.80;44.30;;;;;;4916513;29;20478;-61
2023/02/28 10:10:34;;;;;;;11.33;11.03;;;18.80;44.40;;;;;;4916413;29;20482;-61
2023/02/28 10:13:05;;;;;;;11.00;10.70;;;18.80;44.30;;;;;;4916623;29;20885;-62
2023/02/28 10:15:35;;;;;;;11.07;10.67;;;18.80;44.30;;;;;;4916340;29;20457;-61
2023/02/28 10:18:06;;;;;;;11.03;10.63;;;18.80;44.30;;;;;;4916329;29;20541;-61
2023/02/28 10:20:38;;;;;;;10.60;10.40;;;18.70;44.20;;;;;;4916303;29;20896;-61
2023/02/28 10:23:12;;;;;;;10.97;10.77;;;18.80;44.30;;;;;;4916176;29;20537;-62
2023/02/28 10:25:40;;;;;;;11.00;10.70;;;18.70;44.20;;;;;;4916003;29;20584;-60
2023/02/28 10:28:12;;;;;;;10.67;10.43;;;18.70;44.20;;;;;;4916203;29;20977;-60
2023/02/28 10:30:42;;;;;;;10.93;10.63;;;18.70;44.10;;;;;;4916194;29;20498;-62
2023/02/28 10:33:18;;;;;;;10.90;10.70;;;18.70;44.10;;;;;;4916109;29;20874;-61
2023/02/28 10:35:46;;;;;;;10.97;10.67;;;18.70;44.10;;;;;;4916099;29;20451;-61
2023/02/28 10:38:18;;;;;;;10.77;10.47;;;18.70;44.10;;;;;;4915980;29;20534;-61
2023/02/28 10:40:45;;;;;;;10.80;10.60;;;18.70;44.10;;;;;;4915955;29;20553;-61
2023/02/28 10:43:21;;;;;;;10.73;10.37;;;18.70;44.10;;;;;;4915982;29;20541;-60
2023/02/28 10:45:58;;;;;;;10.87;10.47;;;18.70;44.00;;;;;;4915651;29;20497;-60
2023/02/28 10:48:38;;;;;;;11.50;11.20;;;18.70;44.10;;;;;;4915769;29;21012;-59
2023/02/28 10:51:08;;;;;;;10.70;10.50;;;18.70;44.10;;;;;;4915902;29;20557;-62
2023/02/28 10:53:40;;;;;;;11.53;11.13;;;18.70;44.00;;;;;;4915863;29;20475;-62
2023/02/28 10:56:17;;;;;;;10.70;10.50;;;18.80;44.00;;;;;;4915640;29;20526;-62
2023/02/28 10:58:50;;;;;;;10.87;10.47;;;18.80;44.00;;;;;;4915873;29;20457;-61
2023/02/28 11:01:19;;;;;;;10.70;10.50;;;18.80;44.00;;;;;;4915284;29;20557;-61
2023/02/28 11:03:46;;;;;;;11.47;11.07;;;18.80;44.00;;;;;;4915720;29;20810;-62
2023/02/28 11:06:20;;;;;;;11.50;11.20;;;18.80;44.00;;;;;;4915598;29;20918;-61
2023/02/28 11:08:50;;;;;;;10.57;10.27;;;18.80;43.90;;;;;;4915543;29;20450;-62
2023/02/28 11:11:17;;;;;;;10.60;10.40;;;18.80;43.90;;;;;;4915394;29;20514;-61
2023/02/28 11:13:46;;;;;;;10.90;10.60;;;18.80;43.90;;;;;;4915574;29;20450;-61
2023/02/28 11:16:15;;;;;;;10.63;10.43;;;18.80;43.90;;;;;;4915362;29;20819;-62
2023/02/28 11:18:45;;;;;;;11.20;10.90;;;18.80;43.80;;;;;;4915488;29;20457;-61
2023/02/28 11:21:20;;;;;;;10.80;10.50;;;18.80;43.80;;;;;;4915758;29;20569;-60
2023/02/28 11:23:48;;;;;;;10.47;10.17;;;18.80;43.70;;;;;;4915490;29;21002;-62
2023/02/28 11:26:15;;;;;;;10.63;10.33;;;18.80;43.70;;;;;;4915175;29;20933;-60
2023/02/28 11:28:43;;;;;;;10.93;10.63;;;18.80;43.70;;;;;;4915366;29;20890;-61
2023/02/28 11:31:19;;;;;;;11.07;10.77;;;18.80;43.70;;;;;;4915246;29;20557;-60
2023/02/28 11:33:49;;;;;;;10.50;10.30;;;18.80;43.70;;;;;;4915364;29;20488;-61
2023/02/28 11:36:20;;;;;;;11.33;11.03;;;18.80;43.70;;;;;;4915189;29;20455;-58
2023/02/28 11:38:49;;;;;;;10.70;10.40;;;18.80;43.60;;;;;;4915359;29;20450;-61
2023/02/28 11:41:33;;;;;;;10.70;10.50;;;18.80;43.60;;;;;;4915289;29;20534;-60
2023/02/28 11:44:08;;;;;;;10.20;10.00;;;18.80;43.60;;;;;;4915228;29;20537;-61
2023/02/28 11:46:41;;;;;;;10.47;10.20;;;18.80;43.60;;;;;;4915046;29;20580;-62
2023/02/28 11:49:31;;;;;;;10.40;10.10;;;18.80;43.50;;;;;;4915160;29;20544;-61
2023/02/28 11:52:04;;;;;;;10.47;10.27;;;18.80;43.50;;;;;;4915166;29;20842;-61
2023/02/28 11:55:00;;;;;;;10.80;10.50;;;18.80;43.50;;;;;;4915195;29;20450;-61
2023/02/28 11:57:37;;;;;;;10.40;10.20;;;18.80;43.50;;;;;;4915136;29;20533;-60
2023/02/28 12:00:15;;;;;;;10.27;10.07;;;18.80;43.50;;;;;;4914997;29;20474;-60
2023/02/28 12:02:56;;;;;;;11.00;10.70;;;18.80;43.50;;;;;;4915142;29;20541;-61
2023/02/28 12:05:29;;;;;;;10.50;10.30;;;18.80;43.40;;;;;;4914869;29;20494;-61
2023/02/28 12:08:09;;;;;;;10.67;10.37;;;18.80;43.40;;;;;;4915147;29;20537;-60
2023/02/28 12:10:45;;;;;;;10.53;10.23;;;18.80;43.40;;;;;;4914923;29;21020;-62
2023/02/28 12:13:21;;;;;;;11.07;10.77;;;18.80;43.40;;;;;;4915253;29;20485;-60
2023/02/28 12:16:13;;;;;;;10.60;10.40;;;18.80;43.40;;;;;;4918481;29;20529;-60
2023/02/28 12:18:56;;;;;;;11.33;11.03;;;18.80;43.30;;;;;;4918612;29;21143;-60
2023/02/28 12:21:37;;;;;;;10.83;10.53;;;18.80;43.30;;;;;;4918407;29;20561;-61
2023/02/28 12:24:25;;;;;;;10.70;10.40;;;18.80;43.30;;;;;;4918368;29;20541;-60
2023/02/28 12:26:54;;;;;;;11.20;10.90;;;18.80;43.30;;;;;;4918363;29;20577;-62
2023/02/28 12:29:24;;;;;;;10.97;10.40;;;18.80;43.20;;;;;;4918322;29;20537;-61
2023/02/28 12:31:56;;;;;;;10.70;10.40;;;18.80;43.20;;;;;;4918256;29;20486;-61
2023/02/28 12:34:29;;;;;;;10.47;10.17;;;18.90;43.20;;;;;;4918499;29;21021;-62
2023/02/28 12:37:00;;;;;;;11.00;10.70;;;18.90;43.20;;;;;;4918278;29;20970;-60
2023/02/28 12:39:32;;;;;;;10.70;10.40;;;18.90;43.20;;;;;;4918212;29;20483;-61
2023/02/28 12:42:04;;;;;;;10.60;10.40;;;18.90;43.20;;;;;;4918064;29;20522;-61
2023/02/28 12:44:35;;;;;;;10.30;10.10;;;18.90;43.10;;;;;;4918120;29;20537;-62